Time;durP1;ratioP1;P1;durP2;ratioP2;P2;SDS_P1;SDS_P2;PMS_P1;PMS_P2;Temp;Humidity;BMP_temperature;BMP_pressure;BME280_temperature;BME280_humidity;BME280_pressure;Samples;Min_cycle;Max_cycle;Signal;HPM_P1;HPM_P2
2021/06/03 00:00:38;;;;;;;6.90;3.75;;;20.40;69.60;;;;;;5012227;28;20041;-73
2021/06/03 00:03:05;;;;;;;6.05;3.40;;;20.40;69.90;;;;;;5014293;28;20018;-72
2021/06/03 00:05:46;;;;;;;6.63;3.33;;;20.40;70.00;;;;;;5012483;28;20040;-73
2021/06/03 00:08:13;;;;;;;5.05;3.05;;;20.40;69.80;;;;;;5011940;28;20404;-73
2021/06/03 00:10:45;;;;;;;5.63;3.20;;;20.30;70.20;;;;;;5011489;28;20136;-72
2021/06/03 00:13:11;;;;;;;5.28;3.22;;;20.30;70.80;;;;;;5012430;28;20145;-71
2021/06/03 00:15:39;;;;;;;5.65;3.40;;;20.20;71.20;;;;;;5012483;28;20361;-72
2021/06/03 00:18:05;;;;;;;13.95;3.92;;;20.20;71.40;;;;;;5013862;28;20073;-72
2021/06/03 00:20:33;;;;;;;6.70;3.47;;;20.10;71.60;;;;;;5011866;28;20698;-70
2021/06/03 00:22:59;;;;;;;5.43;3.45;;;20.20;71.50;;;;;;5012211;28;20081;-72
2021/06/03 00:25:25;;;;;;;7.82;3.20;;;20.10;72.10;;;;;;5012073;28;20125;-72
2021/06/03 00:27:51;;;;;;;7.97;3.40;;;20.10;71.70;;;;;;5011616;28;20042;-72
2021/06/03 00:30:17;;;;;;;5.80;3.42;;;20.10;72.10;;;;;;5013555;28;20088;-72
2021/06/03 00:32:43;;;;;;;5.57;3.53;;;20.00;73.10;;;;;;5012217;28;20483;-72
2021/06/03 00:35:10;;;;;;;9.10;3.47;;;20.00;72.50;;;;;;5012045;28;20048;-73
2021/06/03 00:37:36;;;;;;;6.43;3.42;;;20.00;73.00;;;;;;5011839;28;20038;-73
2021/06/03 00:40:04;;;;;;;5.68;3.67;;;19.90;73.00;;;;;;5011907;28;20034;-73
2021/06/03 00:42:30;;;;;;;;;;;19.90;73.30;;;;;;5011824;28;20073;-74
2021/06/03 00:44:56;;;;;;;5.20;3.15;;;19.90;73.40;;;;;;5013621;28;20017;-72
2021/06/03 00:47:21;;;;;;;9.30;3.60;;;19.90;74.00;;;;;;5012227;28;20095;-72
2021/06/03 00:49:47;;;;;;;5.18;3.38;;;19.80;74.20;;;;;;5011364;28;20034;-72
2021/06/03 00:52:13;;;;;;;8.60;3.25;;;19.80;74.20;;;;;;5011473;28;20045;-74
2021/06/03 00:54:38;;;;;;;5.30;3.78;;;19.80;74.30;;;;;;5010460;28;20046;-73
2021/06/03 00:57:04;;;;;;;5.47;3.80;;;19.80;74.60;;;;;;5012793;28;20041;-73
2021/06/03 00:59:30;;;;;;;6.32;3.95;;;19.70;74.90;;;;;;5011227;28;20121;-71
2021/06/03 01:01:56;;;;;;;3.88;3.20;;;19.70;75.60;;;;;;5011526;28;20696;-72
2021/06/03 01:04:21;;;;;;;10.07;3.70;;;19.60;76.10;;;;;;5011620;28;20026;-73
2021/06/03 01:06:48;;;;;;;4.38;3.42;;;19.60;76.50;;;;;;5011305;28;20107;-71
2021/06/03 01:09:35;;;;;;;6.05;3.67;;;19.60;76.30;;;;;;5012721;28;20403;-73
2021/06/03 01:12:20;;;;;;;6.70;3.42;;;19.60;77.00;;;;;;5011607;28;20451;-73
2021/06/03 01:14:51;;;;;;;4.82;3.55;;;19.50;77.00;;;;;;5011344;28;20042;-73
2021/06/03 01:17:21;;;;;;;6.32;3.38;;;19.50;77.70;;;;;;5009898;28;20481;-72
2021/06/03 01:19:47;;;;;;;8.95;3.30;;;19.40;78.20;;;;;;5010908;28;20120;-73
2021/06/03 01:22:19;;;;;;;9.98;3.70;;;19.40;78.60;;;;;;5026254;28;20068;-73
2021/06/03 01:24:53;;;;;;;7.63;3.60;;;19.30;79.60;;;;;;5009929;28;20064;-73
2021/06/03 01:27:24;;;;;;;5.22;3.70;;;19.30;80.00;;;;;;5010954;28;20518;-72
2021/06/03 01:30:11;;;;;;;6.35;3.88;;;19.30;80.70;;;;;;5012703;28;20022;-74
2021/06/03 01:32:40;;;;;;;5.00;3.70;;;19.20;81.00;;;;;;5011399;28;20041;-73
2021/06/03 01:35:10;;;;;;;7.18;3.55;;;19.30;81.30;;;;;;5008330;28;20486;-73
2021/06/03 01:37:37;;;;;;;7.88;4.05;;;19.20;81.40;;;;;;4990806;28;20035;-72
2021/06/03 01:40:05;;;;;;;6.97;3.40;;;19.10;82.20;;;;;;4990318;28;20058;-73
2021/06/03 01:42:31;;;;;;;6.65;3.75;;;19.20;82.40;;;;;;4989059;28;20043;-72
2021/06/03 01:44:57;;;;;;;4.22;3.42;;;19.10;82.30;;;;;;4973341;28;20027;-73
2021/06/03 01:47:23;;;;;;;16.23;4.13;;;19.10;82.90;;;;;;4988140;28;20081;-72
2021/06/03 01:49:49;;;;;;;11.23;3.78;;;19.00;83.10;;;;;;4990956;28;20038;-73
2021/06/03 01:52:15;;;;;;;7.47;3.55;;;18.90;83.30;;;;;;4990065;28;20596;-72
2021/06/03 01:54:41;;;;;;;4.93;3.75;;;19.00;83.50;;;;;;4990525;28;20030;-73
2021/06/03 01:57:08;;;;;;;5.03;3.80;;;18.90;83.40;;;;;;4992378;28;20571;-73
2021/06/03 01:59:35;;;;;;;6.13;3.95;;;19.00;83.50;;;;;;4990904;28;20046;-73
2021/06/03 02:02:01;;;;;;;7.28;3.80;;;18.90;83.60;;;;;;4976941;28;20117;-74
2021/06/03 02:04:26;;;;;;;5.72;4.05;;;18.90;84.40;;;;;;4971236;28;20122;-73
2021/06/03 02:06:52;;;;;;;9.23;4.20;;;18.80;84.40;;;;;;4975610;28;20026;-74
2021/06/03 02:09:18;;;;;;;6.93;4.13;;;18.80;84.90;;;;;;4990753;28;20368;-71
2021/06/03 02:11:47;;;;;;;4.88;3.88;;;18.70;85.40;;;;;;4987823;28;20034;-72
2021/06/03 02:14:18;;;;;;;6.32;3.65;;;18.70;85.60;;;;;;4986495;28;20038;-72
2021/06/03 02:16:45;;;;;;;7.82;4.15;;;18.70;85.70;;;;;;4990621;28;20054;-73
2021/06/03 02:19:21;;;;;;;8.15;4.70;;;18.70;86.00;;;;;;4990459;28;20125;-73
2021/06/03 02:21:48;;;;;;;7.93;3.67;;;18.70;86.00;;;;;;4990377;28;20038;-73
2021/06/03 02:24:14;;;;;;;9.75;4.78;;;18.60;87.00;;;;;;4990873;28;20065;-73
2021/06/03 02:26:42;;;;;;;6.63;3.80;;;18.50;87.60;;;;;;4990488;28;20038;-73
2021/06/03 02:29:09;;;;;;;6.80;3.70;;;18.50;88.20;;;;;;4990349;28;20420;-73
2021/06/03 02:31:36;;;;;;;14.80;4.15;;;18.60;88.00;;;;;;4990529;28;20472;-73
2021/06/03 02:34:03;;;;;;;8.33;4.40;;;18.50;88.30;;;;;;4990408;28;20034;-73
2021/06/03 02:36:29;;;;;;;7.47;4.45;;;18.40;88.90;;;;;;4990297;28;20029;-73
2021/06/03 02:38:55;;;;;;;6.53;4.75;;;18.50;89.30;;;;;;4991555;28;20019;-74
2021/06/03 02:41:20;;;;;;;7.82;4.15;;;18.40;89.60;;;;;;4990265;28;20027;-74
2021/06/03 02:43:48;;;;;;;7.22;4.43;;;18.40;89.30;;;;;;4990038;28;20065;-74
2021/06/03 02:46:15;;;;;;;6.40;3.97;;;18.30;89.60;;;;;;4982836;28;20038;-73
2021/06/03 02:48:41;;;;;;;5.15;4.00;;;18.30;90.00;;;;;;4970679;28;20077;-73
2021/06/03 02:51:07;;;;;;;6.72;3.83;;;18.30;90.20;;;;;;4971938;28;20054;-72
2021/06/03 02:53:32;;;;;;;8.50;4.50;;;18.30;90.20;;;;;;4988851;28;20129;-73
2021/06/03 02:55:58;;;;;;;11.40;4.55;;;18.30;90.20;;;;;;4988416;28;20046;-72
2021/06/03 02:58:24;;;;;;;7.30;4.55;;;18.20;90.40;;;;;;4989781;28;20081;-72
2021/06/03 03:00:50;;;;;;;8.73;4.22;;;18.20;90.50;;;;;;4990161;28;20477;-73
2021/06/03 03:03:17;;;;;;;7.82;4.13;;;18.20;90.50;;;;;;4991560;28;20030;-72
2021/06/03 03:05:44;;;;;;;6.47;4.33;;;18.20;90.80;;;;;;4990097;28;20041;-74
2021/06/03 03:08:10;;;;;;;8.23;4.80;;;18.10;91.00;;;;;;4990346;28;20261;-73
2021/06/03 03:10:39;;;;;;;9.63;5.13;;;18.10;91.10;;;;;;4989654;28;20041;-73
2021/06/03 03:13:06;;;;;;;10.63;5.10;;;18.10;91.00;;;;;;4988449;28;20034;-74
2021/06/03 03:15:32;;;;;;;7.97;5.07;;;18.10;91.20;;;;;;4990196;28;20037;-74
2021/06/03 03:17:58;;;;;;;9.57;5.00;;;18.00;91.50;;;;;;4991147;28;20031;-73
2021/06/03 03:20:25;;;;;;;7.72;5.03;;;17.90;91.40;;;;;;4989700;28;20034;-73
2021/06/03 03:22:52;;;;;;;10.00;5.57;;;18.00;91.40;;;;;;4990131;28;20039;-73
2021/06/03 03:25:19;;;;;;;9.82;4.65;;;17.90;91.50;;;;;;4989765;28;20373;-73
2021/06/03 03:27:47;;;;;;;8.55;4.93;;;17.90;91.90;;;;;;4986200;28;20054;-74
2021/06/03 03:30:14;;;;;;;10.88;5.22;;;17.90;92.00;;;;;;4971877;28;20105;-73
2021/06/03 03:32:40;;;;;;;9.67;5.37;;;17.90;92.00;;;;;;4989582;28;20058;-73
2021/06/03 03:35:08;;;;;;;22.30;5.18;;;17.80;92.00;;;;;;4990049;28;20694;-73
2021/06/03 03:37:35;;;;;;;7.07;5.03;;;17.90;92.20;;;;;;4989708;28;20075;-74
2021/06/03 03:40:00;;;;;;;11.63;5.00;;;17.90;92.20;;;;;;4983744;28;20563;-74
2021/06/03 03:42:26;;;;;;;11.57;5.47;;;17.90;92.20;;;;;;4971414;28;20429;-72
2021/06/03 03:44:52;;;;;;;7.18;4.93;;;17.90;92.20;;;;;;4990947;28;20030;-72
2021/06/03 03:47:18;;;;;;;9.05;5.07;;;17.90;92.20;;;;;;4990111;28;20042;-74
2021/06/03 03:49:44;;;;;;;8.65;5.38;;;17.80;92.50;;;;;;4989728;28;20034;-74
2021/06/03 03:52:10;;;;;;;11.80;4.88;;;17.90;92.30;;;;;;4989585;28;20097;-72
2021/06/03 03:54:36;;;;;;;7.93;5.13;;;17.90;92.40;;;;;;4989240;28;20564;-74
2021/06/03 03:57:03;;;;;;;10.60;5.30;;;18.00;92.40;;;;;;4991121;28;20110;-75
2021/06/03 03:59:28;;;;;;;8.68;4.90;;;18.00;92.30;;;;;;4972071;28;20039;-75
2021/06/03 04:01:54;;;;;;;12.65;5.10;;;18.00;92.30;;;;;;4983815;28;20053;-73
2021/06/03 04:04:21;;;;;;;16.20;5.82;;;17.90;92.50;;;;;;4993252;28;20039;-75
2021/06/03 04:06:47;;;;;;;13.43;5.72;;;17.90;92.60;;;;;;4991796;28;20506;-72
2021/06/03 04:09:13;;;;;;;11.27;5.55;;;17.90;92.50;;;;;;4994691;28;20419;-72
2021/06/03 04:11:39;;;;;;;12.85;5.13;;;17.90;92.60;;;;;;4992895;28;20042;-74
2021/06/03 04:14:05;;;;;;;8.45;5.00;;;17.80;92.60;;;;;;4992631;28;20053;-73
2021/06/03 04:16:31;;;;;;;15.98;5.50;;;17.80;92.50;;;;;;4983097;28;20047;-72
2021/06/03 04:18:56;;;;;;;9.02;4.80;;;17.70;92.90;;;;;;4978571;28;20369;-73
2021/06/03 04:21:22;;;;;;;11.52;4.78;;;17.80;92.90;;;;;;4992263;28;20101;-72
2021/06/03 04:23:48;;;;;;;9.25;5.60;;;17.80;92.90;;;;;;4994285;28;20168;-72
2021/06/03 04:26:14;;;;;;;12.77;5.22;;;17.80;93.30;;;;;;4992581;28;20042;-74
2021/06/03 04:28:40;;;;;;;13.07;5.30;;;17.80;93.10;;;;;;4991610;28;20476;-75
2021/06/03 04:31:06;;;;;;;8.55;5.93;;;17.90;93.10;;;;;;4992439;28;20403;-74
2021/06/03 04:33:32;;;;;;;10.80;5.47;;;17.90;93.20;;;;;;4991297;28;20023;-75
2021/06/03 04:35:57;;;;;;;9.48;5.03;;;17.90;93.30;;;;;;4993880;28;20011;-74
2021/06/03 04:38:23;;;;;;;11.52;5.20;;;17.90;93.20;;;;;;4992317;28;20635;-74
2021/06/03 04:40:49;;;;;;;7.60;4.93;;;17.90;93.40;;;;;;4991324;28;20114;-74
2021/06/03 04:43:16;;;;;;;12.02;6.80;;;17.90;93.10;;;;;;4991370;28;20503;-74
2021/06/03 04:45:41;;;;;;;10.45;6.68;;;18.00;93.30;;;;;;4992547;28;20373;-75
2021/06/03 04:48:08;;;;;;;10.07;5.38;;;18.00;93.30;;;;;;4994629;28;20026;-75
2021/06/03 04:50:36;;;;;;;6.82;5.03;;;18.10;93.30;;;;;;4991969;28;20034;-75
2021/06/03 04:53:02;;;;;;;8.20;5.50;;;18.10;93.40;;;;;;4978254;28;20559;-73
2021/06/03 04:55:29;;;;;;;9.07;5.80;;;18.10;93.20;;;;;;4982021;28;20042;-75
2021/06/03 04:57:56;;;;;;;10.68;5.35;;;18.20;93.10;;;;;;4986718;28;20046;-75
2021/06/03 05:00:26;;;;;;;15.20;5.70;;;18.30;93.30;;;;;;4972389;28;20019;-74
2021/06/03 05:02:51;;;;;;;9.88;5.20;;;18.20;93.20;;;;;;4974305;28;20019;-74
2021/06/03 05:05:17;;;;;;;8.30;5.60;;;18.30;93.20;;;;;;4972174;28;20031;-75
2021/06/03 05:07:44;;;;;;;6.97;5.03;;;18.40;93.00;;;;;;4983994;28;20129;-76
2021/06/03 05:10:10;;;;;;;10.13;5.18;;;18.50;93.00;;;;;;4991597;28;20078;-73
2021/06/03 05:12:36;;;;;;;20.40;5.63;;;18.50;93.00;;;;;;4989977;28;20050;-75
2021/06/03 05:15:04;;;;;;;13.98;5.25;;;18.60;92.90;;;;;;4993269;28;20034;-75
2021/06/03 05:17:30;;;;;;;11.13;5.57;;;18.70;92.70;;;;;;4991450;28;20046;-75
2021/06/03 05:19:55;;;;;;;9.88;5.10;;;18.70;92.60;;;;;;4990286;28;20030;-74
2021/06/03 05:22:21;;;;;;;6.95;4.65;;;18.70;92.60;;;;;;4991073;28;20064;-74
2021/06/03 05:24:47;;;;;;;13.93;5.50;;;18.80;92.50;;;;;;4991430;28;20114;-73
2021/06/03 05:27:12;;;;;;;10.80;6.05;;;18.80;92.30;;;;;;4992910;28;20377;-73
2021/06/03 05:29:38;;;;;;;15.00;5.15;;;18.90;92.20;;;;;;4991523;28;20085;-74
2021/06/03 05:32:04;;;;;;;9.98;5.15;;;19.00;92.00;;;;;;4991158;28;20046;-75
2021/06/03 05:34:30;;;;;;;9.63;5.55;;;19.00;92.00;;;;;;4990941;28;20479;-73
2021/06/03 05:36:56;;;;;;;19.00;5.88;;;19.10;91.90;;;;;;4991299;28;20031;-73
2021/06/03 05:39:22;;;;;;;10.70;4.95;;;19.20;91.80;;;;;;4990048;28;20022;-73
2021/06/03 05:41:47;;;;;;;15.50;5.70;;;19.30;91.70;;;;;;4973300;28;20032;-74
2021/06/03 05:44:14;;;;;;;15.77;4.95;;;19.40;91.60;;;;;;4971468;28;20484;-72
2021/06/03 05:46:41;;;;;;;8.00;4.55;;;19.70;91.20;;;;;;4982279;28;20074;-74
2021/06/03 05:49:08;;;;;;;5.93;4.70;;;20.00;91.20;;;;;;4988983;28;20069;-73
2021/06/03 05:51:34;;;;;;;8.68;4.43;;;20.40;91.20;;;;;;4991157;28;20050;-73
2021/06/03 05:53:59;;;;;;;4.28;3.80;;;20.60;90.00;;;;;;4993466;28;20111;-73
2021/06/03 05:56:25;;;;;;;7.82;4.70;;;20.80;89.60;;;;;;4990067;28;20034;-74
2021/06/03 05:58:52;;;;;;;9.20;4.60;;;20.80;89.20;;;;;;4992795;28;20114;-79
2021/06/03 06:01:19;;;;;;;5.50;3.97;;;20.80;88.50;;;;;;4992477;28;20058;-75
2021/06/03 06:03:49;;;;;;;9.63;4.10;;;20.90;88.70;;;;;;4991908;28;20454;-74
2021/06/03 06:06:24;;;;;;;6.40;3.90;;;20.90;88.50;;;;;;4993187;28;20515;-75
2021/06/03 06:08:57;;;;;;;7.60;4.68;;;21.00;88.30;;;;;;4989797;28;20093;-75
2021/06/03 06:11:30;;;;;;;8.52;4.90;;;21.00;88.60;;;;;;4989807;28;20656;-73
2021/06/03 06:13:56;;;;;;;7.32;3.67;;;21.10;88.80;;;;;;4977529;28;20034;-72
2021/06/03 06:16:22;;;;;;;6.80;4.60;;;21.10;88.70;;;;;;4979087;28;20035;-75
2021/06/03 06:18:47;;;;;;;12.90;5.00;;;21.30;88.40;;;;;;4985493;28;20089;-74
2021/06/03 06:21:16;;;;;;;5.82;4.10;;;21.20;88.30;;;;;;4972089;28;20512;-72
2021/06/03 06:23:42;;;;;;;5.85;3.50;;;21.30;87.90;;;;;;4989992;28;20162;-75
2021/06/03 06:26:09;;;;;;;11.88;4.55;;;21.30;87.30;;;;;;4975040;28;20108;-75
2021/06/03 06:28:35;;;;;;;12.80;4.10;;;21.30;87.20;;;;;;4980086;28;20112;-74
2021/06/03 06:31:01;;;;;;;11.38;4.30;;;21.30;87.40;;;;;;4990343;28;20415;-74
2021/06/03 06:33:28;;;;;;;5.18;3.67;;;21.30;87.50;;;;;;4989909;28;20027;-76
2021/06/03 06:35:53;;;;;;;7.28;4.00;;;21.30;87.00;;;;;;4991819;28;20488;-75
2021/06/03 06:38:21;;;;;;;10.30;3.90;;;21.40;86.80;;;;;;4973966;28;20133;-76
2021/06/03 06:40:47;;;;;;;8.50;4.13;;;21.50;87.20;;;;;;4982671;28;20491;-74
2021/06/03 06:43:14;;;;;;;10.35;3.88;;;21.60;87.00;;;;;;4990235;28;20329;-75
2021/06/03 06:45:40;;;;;;;8.70;3.92;;;21.70;86.80;;;;;;4990051;28;20146;-73
2021/06/03 06:48:07;;;;;;;3.88;3.40;;;21.70;86.60;;;;;;4991502;28;20015;-77
2021/06/03 06:50:34;;;;;;;7.30;3.65;;;21.80;86.10;;;;;;4989852;28;20041;-78
2021/06/03 06:53:00;;;;;;;9.98;4.85;;;21.80;85.90;;;;;;4990327;28;20122;-77
2021/06/03 06:55:26;;;;;;;6.53;4.68;;;21.80;86.10;;;;;;4990874;28;20113;-75
2021/06/03 06:57:53;;;;;;;6.07;3.45;;;21.90;86.10;;;;;;4989934;28;20041;-76
2021/06/03 07:00:21;;;;;;;8.82;3.50;;;22.00;85.60;;;;;;4989658;28;20503;-74
2021/06/03 07:02:47;;;;;;;6.90;3.72;;;22.10;85.00;;;;;;4991369;28;20512;-74
2021/06/03 07:05:13;;;;;;;12.55;4.03;;;22.20;85.10;;;;;;4989737;28;20120;-75
2021/06/03 07:07:39;;;;;;;8.57;3.30;;;22.30;84.90;;;;;;4989872;28;20117;-74
2021/06/03 07:10:06;;;;;;;6.25;3.13;;;22.40;85.00;;;;;;4990237;28;20034;-75
2021/06/03 07:12:33;;;;;;;9.20;3.88;;;22.50;84.10;;;;;;4989839;28;20448;-75
2021/06/03 07:15:00;;;;;;;11.25;3.80;;;22.60;83.50;;;;;;4990304;28;20362;-77
2021/06/03 07:17:32;;;;;;;6.97;3.70;;;22.70;82.20;;;;;;4989590;28;20034;-78
2021/06/03 07:19:57;;;;;;;5.72;3.53;;;22.60;82.80;;;;;;4988486;28;20134;-76
2021/06/03 07:22:23;;;;;;;6.72;3.40;;;22.70;83.70;;;;;;4989607;28;20121;-77
2021/06/03 07:24:49;;;;;;;4.95;3.40;;;22.80;83.80;;;;;;4985289;28;20051;-76
2021/06/03 07:27:15;;;;;;;5.40;3.72;;;22.90;83.90;;;;;;4971660;28;20033;-78
2021/06/03 07:29:41;;;;;;;6.93;3.33;;;23.10;82.70;;;;;;5004592;28;20112;-78
2021/06/03 07:32:07;;;;;;;4.50;3.38;;;23.20;82.40;;;;;;4989456;28;20417;-77
2021/06/03 07:34:34;;;;;;;8.27;3.72;;;23.30;81.80;;;;;;4979380;28;20479;-78
2021/06/03 07:37:00;;;;;;;6.03;3.78;;;23.40;81.40;;;;;;4992005;28;20043;-77
2021/06/03 07:39:26;;;;;;;10.95;3.83;;;23.50;81.60;;;;;;4992206;28;20349;-76
2021/06/03 07:41:52;;;;;;;6.35;3.78;;;23.50;81.40;;;;;;4975647;28;20022;-76
2021/06/03 07:44:18;;;;;;;4.03;3.10;;;23.70;81.50;;;;;;4990090;28;20415;-77
2021/06/03 07:46:44;;;;;;;9.30;4.00;;;23.70;81.00;;;;;;4993050;28;20034;-77
2021/06/03 07:49:13;;;;;;;6.45;3.80;;;23.90;81.20;;;;;;4993110;28;20046;-77
2021/06/03 07:51:42;;;;;;;5.57;3.45;;;24.00;80.70;;;;;;4993277;28;20141;-78
2021/06/03 07:54:08;;;;;;;7.07;2.90;;;24.10;80.50;;;;;;4994904;28;20474;-81
2021/06/03 07:56:35;;;;;;;3.13;2.83;;;24.20;79.80;;;;;;4993488;28;20038;-76
2021/06/03 07:59:01;;;;;;;6.47;3.15;;;24.30;79.80;;;;;;4978895;28;20047;-77
2021/06/03 08:01:27;;;;;;;7.70;3.20;;;24.40;78.90;;;;;;4982683;28;20042;-78
2021/06/03 08:03:53;;;;;;;6.80;3.17;;;24.50;77.10;;;;;;4993188;28;20065;-80
2021/06/03 08:06:18;;;;;;;7.57;3.25;;;24.50;77.30;;;;;;4993008;28;20459;-76
2021/06/03 08:08:44;;;;;;;9.20;3.05;;;24.50;77.50;;;;;;4994907;28;20030;-76
2021/06/03 08:11:10;;;;;;;6.38;2.85;;;24.50;75.80;;;;;;4977695;28;20524;-75
2021/06/03 08:13:37;;;;;;;6.90;3.03;;;24.40;75.20;;;;;;4983930;28;20042;-76
2021/06/03 08:16:04;;;;;;;8.07;3.13;;;24.30;74.60;;;;;;4992688;28;20069;-76
2021/06/03 08:18:30;;;;;;;5.75;2.85;;;24.40;74.50;;;;;;4992633;28;20041;-76
2021/06/03 08:20:59;;;;;;;6.95;2.78;;;24.40;74.40;;;;;;4994152;28;20018;-79
2021/06/03 08:23:28;;;;;;;6.82;2.50;;;24.60;75.60;;;;;;4975481;28;20421;-76
2021/06/03 08:25:56;;;;;;;12.07;3.20;;;24.60;76.20;;;;;;4985049;28;20042;-75
2021/06/03 08:28:22;;;;;;;7.32;3.08;;;24.60;76.00;;;;;;4991551;28;20682;-76
2021/06/03 08:30:48;;;;;;;8.88;3.08;;;24.70;75.50;;;;;;4992054;28;20038;-78
2021/06/03 08:33:14;;;;;;;6.72;2.80;;;24.60;75.80;;;;;;4994230;28;20030;-77
2021/06/03 08:35:40;;;;;;;7.30;3.08;;;24.60;76.20;;;;;;4991147;28;20043;-76
2021/06/03 08:38:10;;;;;;;7.07;3.38;;;24.50;76.20;;;;;;4992404;28;20054;-79
2021/06/03 08:40:42;;;;;;;7.10;3.58;;;24.50;76.80;;;;;;4992247;28;20043;-77
2021/06/03 08:43:09;;;;;;;15.63;3.78;;;24.60;76.70;;;;;;4992358;28;20046;-77
2021/06/03 08:45:38;;;;;;;4.20;2.90;;;24.50;76.20;;;;;;4992374;28;20023;-77
2021/06/03 08:48:04;;;;;;;4.43;3.28;;;24.50;75.90;;;;;;4992129;28;20341;-75
2021/06/03 08:50:34;;;;;;;4.10;3.00;;;24.40;76.40;;;;;;4991750;28;20522;-77
2021/06/03 08:53:00;;;;;;;5.00;3.05;;;24.40;76.50;;;;;;4990919;28;20093;-77
2021/06/03 08:58:14;;;;;;;5.85;2.97;;;24.60;76.70;;;;;;4991875;28;20469;-78
2021/06/03 09:00:41;;;;;;;5.70;3.03;;;24.60;76.00;;;;;;4992293;28;20428;-76
2021/06/03 09:03:07;;;;;;;8.80;3.60;;;24.60;76.00;;;;;;4993512;28;20404;-74
2021/06/03 09:05:33;;;;;;;4.75;3.05;;;24.60;76.80;;;;;;4991909;28;20041;-76
2021/06/03 09:08:17;;;;;;;7.60;3.25;;;24.80;77.70;;;;;;4978375;28;20046;-81
2021/06/03 09:10:44;;;;;;;5.03;3.20;;;24.80;78.80;;;;;;4983470;28;20052;-84
2021/06/03 09:13:20;;;;;;;5.70;3.85;;;24.90;78.50;;;;;;4991553;28;20054;-79
2021/06/03 09:15:51;;;;;;;14.00;3.20;;;25.10;77.90;;;;;;4991766;28;20054;-77
2021/06/03 09:18:25;;;;;;;7.00;3.78;;;25.10;77.30;;;;;;4993227;28;20069;-74
2021/06/03 09:20:51;;;;;;;11.18;3.38;;;25.20;77.20;;;;;;4979061;28;20329;-74
2021/06/03 09:23:31;;;;;;;9.30;3.55;;;25.40;77.00;;;;;;4991740;28;20042;-74
2021/06/03 09:25:59;;;;;;;7.00;3.40;;;25.40;76.60;;;;;;4977682;28;20130;-79
2021/06/03 09:28:36;;;;;;;5.93;3.00;;;25.40;76.80;;;;;;4980879;28;20042;-79
2021/06/03 09:31:18;;;;;;;6.55;3.08;;;25.40;76.80;;;;;;4990343;28;20034;-77
2021/06/03 09:33:48;;;;;;;6.45;3.10;;;25.60;77.10;;;;;;4990783;28;20057;-78
2021/06/03 09:36:17;;;;;;;7.30;3.42;;;25.70;76.80;;;;;;4992967;28;20030;-79
2021/06/03 09:38:56;;;;;;;5.55;3.42;;;25.80;76.60;;;;;;5006681;28;20038;-79
2021/06/03 09:41:25;;;;;;;12.90;3.28;;;25.90;76.40;;;;;;4989742;28;20089;-77
2021/06/03 09:44:17;;;;;;;5.43;3.10;;;26.00;76.60;;;;;;4978683;28;20038;-76
2021/06/03 09:46:52;;;;;;;10.75;3.17;;;26.00;75.90;;;;;;4982337;28;20041;-75
2021/06/03 09:49:25;;;;;;;10.27;3.63;;;26.10;75.70;;;;;;4982901;28;20053;-76
2021/06/03 09:51:53;;;;;;;7.55;3.13;;;26.10;74.80;;;;;;4975892;28;20045;-76
2021/06/03 09:54:20;;;;;;;5.88;3.50;;;26.20;75.20;;;;;;4990870;28;20397;-75
2021/06/03 09:56:50;;;;;;;7.28;4.03;;;26.30;74.80;;;;;;4992209;28;20336;-76
2021/06/03 09:59:23;;;;;;;3.38;2.63;;;26.40;74.50;;;;;;4989881;28;20055;-74
2021/06/03 10:02:09;;;;;;;3.65;2.78;;;26.40;73.70;;;;;;4990966;28;20701;-76
2021/06/03 10:04:39;;;;;;;6.93;3.78;;;26.40;73.90;;;;;;4990743;28;20030;-77
2021/06/03 10:07:09;;;;;;;5.95;3.35;;;26.50;74.40;;;;;;4991124;28;20038;-80
2021/06/03 10:09:39;;;;;;;5.78;2.80;;;26.50;74.20;;;;;;4990810;28;20247;-77
2021/06/03 10:12:06;;;;;;;5.53;3.17;;;26.50;72.40;;;;;;4992142;28;20101;-78
2021/06/03 10:14:33;;;;;;;5.13;2.95;;;26.40;72.50;;;;;;4990439;28;20046;-80
2021/06/03 10:17:31;;;;;;;6.43;3.22;;;26.40;72.20;;;;;;4989319;28;20461;-79
2021/06/03 10:20:10;;;;;;;9.45;3.42;;;26.50;72.90;;;;;;4975797;28;20546;-75
2021/06/03 10:22:46;;;;;;;10.40;3.47;;;26.70;73.00;;;;;;4981718;28;20404;-76
2021/06/03 10:25:23;;;;;;;14.67;3.97;;;26.70;73.10;;;;;;4990740;28;20057;-81
2021/06/03 10:28:05;;;;;;;10.65;4.10;;;26.80;73.60;;;;;;4989695;28;20104;-76
2021/06/03 10:30:47;;;;;;;7.05;3.58;;;26.90;73.80;;;;;;4990490;28;20050;-77
2021/06/03 10:33:18;;;;;;;6.38;3.58;;;26.80;73.50;;;;;;4991827;28;20026;-79
2021/06/03 10:35:46;;;;;;;6.00;3.38;;;26.70;74.20;;;;;;4990639;28;20030;-76
2021/06/03 10:38:13;;;;;;;;;;;26.80;74.20;;;;;;4990729;28;20034;-76
2021/06/03 10:40:46;;;;;;;6.57;3.15;;;27.00;73.90;;;;;;4990165;28;19934;-76
2021/06/03 10:43:12;;;;;;;7.40;3.53;;;27.10;73.20;;;;;;4990368;28;20119;-76
2021/06/03 10:45:41;;;;;;;11.48;3.92;;;27.10;72.40;;;;;;4987868;28;20385;-76
2021/06/03 10:48:07;;;;;;;8.23;2.97;;;27.00;72.80;;;;;;4971695;28;20126;-75
2021/06/03 10:50:43;;;;;;;8.27;3.58;;;27.10;71.90;;;;;;4984547;28;20129;-75
2021/06/03 10:53:13;;;;;;;6.65;3.40;;;27.10;72.00;;;;;;4989379;28;20102;-75
2021/06/03 10:55:45;;;;;;;9.32;3.35;;;27.10;71.50;;;;;;4989956;28;20030;-76
2021/06/03 10:58:14;;;;;;;6.43;3.47;;;27.20;70.80;;;;;;4988581;28;20035;-74
2021/06/03 11:01:07;;;;;;;10.63;3.47;;;27.20;70.60;;;;;;4986779;28;20053;-75
2021/06/03 11:03:41;;;;;;;7.78;3.35;;;27.10;70.80;;;;;;4970620;28;20030;-75
2021/06/03 11:06:15;;;;;;;11.45;4.10;;;27.20;70.90;;;;;;4991546;28;20014;-75
2021/06/03 11:08:47;;;;;;;7.10;3.58;;;27.10;70.60;;;;;;4989863;28;20125;-75
2021/06/03 11:11:13;;;;;;;13.80;3.10;;;27.10;69.90;;;;;;4990660;28;20042;-78
2021/06/03 11:13:48;;;;;;;9.75;4.25;;;27.10;69.90;;;;;;4994324;28;20041;-80
2021/06/03 11:16:16;;;;;;;12.32;3.95;;;27.10;70.40;;;;;;4992681;28;20030;-77
2021/06/03 11:18:45;;;;;;;7.85;3.60;;;27.20;70.60;;;;;;4993364;28;20065;-76
2021/06/03 11:21:42;;;;;;;6.35;3.15;;;27.10;69.90;;;;;;4994688;28;20635;-77
2021/06/03 11:24:31;;;;;;;5.90;3.55;;;27.00;69.60;;;;;;4994077;28;20441;-79
2021/06/03 11:26:58;;;;;;;12.82;3.85;;;27.00;70.10;;;;;;4994611;28;20129;-78
2021/06/03 11:29:36;;;;;;;6.40;3.38;;;27.10;70.00;;;;;;4993676;28;20033;-77
2021/06/03 11:32:04;;;;;;;6.28;3.75;;;27.10;70.10;;;;;;4992647;28;20066;-77
2021/06/03 11:34:41;;;;;;;6.70;3.90;;;27.20;69.30;;;;;;4993811;28;20030;-80
2021/06/03 11:37:21;;;;;;;4.57;3.20;;;27.10;68.80;;;;;;4992099;28;20419;-77
2021/06/03 11:40:07;;;;;;;5.75;3.38;;;27.20;69.10;;;;;;4991884;28;20334;-76
2021/06/03 11:42:35;;;;;;;5.13;3.60;;;27.40;68.90;;;;;;4992296;28;20090;-76
2021/06/03 11:45:11;;;;;;;6.93;3.55;;;27.50;69.50;;;;;;4994169;28;20276;-77
2021/06/03 11:47:39;;;;;;;6.95;3.53;;;27.60;69.10;;;;;;4964423;28;20055;-76
2021/06/03 11:50:17;;;;;;;9.50;3.60;;;27.50;69.00;;;;;;4988343;28;20043;-77
2021/06/03 11:53:00;;;;;;;6.57;3.30;;;27.50;67.50;;;;;;4993256;28;20046;-79
2021/06/03 11:55:42;;;;;;;9.25;3.20;;;27.60;67.80;;;;;;4992387;28;20572;-79
2021/06/03 11:58:20;;;;;;;8.65;3.55;;;27.60;67.90;;;;;;4984853;28;20520;-77
2021/06/03 12:00:49;;;;;;;4.57;3.00;;;27.70;67.30;;;;;;4977558;28;20081;-77
2021/06/03 12:03:40;;;;;;;9.00;3.80;;;27.90;67.80;;;;;;4994658;28;20015;-79
2021/06/03 12:06:10;;;;;;;6.50;3.17;;;28.00;67.00;;;;;;4992919;28;20479;-77
2021/06/03 12:08:37;;;;;;;6.93;3.38;;;28.00;66.30;;;;;;4992633;28;20049;-77
2021/06/03 12:11:05;;;;;;;7.38;3.60;;;28.10;66.30;;;;;;4991405;28;20409;-78
2021/06/03 12:13:31;;;;;;;15.23;4.30;;;28.00;66.60;;;;;;4991326;28;20041;-76
2021/06/03 12:15:56;;;;;;;3.72;3.05;;;28.00;66.40;;;;;;4993221;28;20035;-75
2021/06/03 12:18:22;;;;;;;8.07;3.13;;;28.20;66.10;;;;;;4992388;28;20078;-76
2021/06/03 12:20:49;;;;;;;4.32;3.33;;;28.20;66.60;;;;;;4994148;28;20102;-75
2021/06/03 12:23:15;;;;;;;12.67;5.20;;;28.20;65.40;;;;;;4991557;28;20046;-77
2021/06/03 12:25:43;;;;;;;6.30;3.15;;;28.20;66.10;;;;;;4992790;28;20041;-75
2021/06/03 12:28:11;;;;;;;6.78;3.38;;;28.20;66.40;;;;;;4992567;28;20548;-76
2021/06/03 12:30:40;;;;;;;15.13;4.43;;;28.30;66.50;;;;;;4992600;28;20408;-78
2021/06/03 12:33:15;;;;;;;8.40;3.72;;;28.30;66.80;;;;;;4993798;28;20412;-77
2021/06/03 12:35:51;;;;;;;11.57;3.28;;;28.50;66.40;;;;;;4991171;28;20611;-77
2021/06/03 12:38:34;;;;;;;6.13;3.05;;;28.60;64.80;;;;;;4992416;28;20089;-77
2021/06/03 12:41:30;;;;;;;5.97;2.90;;;28.70;64.00;;;;;;4992213;28;20070;-76
2021/06/03 12:44:05;;;;;;;6.38;3.40;;;28.70;64.00;;;;;;4992323;28;20046;-77
2021/06/03 12:46:36;;;;;;;5.00;3.33;;;28.80;63.20;;;;;;4992139;28;20062;-76
2021/06/03 12:49:18;;;;;;;11.13;3.80;;;28.80;62.70;;;;;;4992258;28;20022;-76
2021/06/03 12:51:50;;;;;;;9.73;4.18;;;28.80;63.50;;;;;;4991101;28;20045;-75
2021/06/03 12:54:15;;;;;;;10.20;3.78;;;28.70;63.80;;;;;;4993375;28;20441;-76
2021/06/03 12:56:48;;;;;;;8.52;3.63;;;28.60;64.30;;;;;;4991118;28;20049;-78